sensor_id;sensor_type;location;lat;lon;timestamp;temperature;humidity
62339;DHT22;48368;53.406;6.214;2022-11-20T00:00:11;0.90;99.90
62339;DHT22;48368;53.406;6.214;2022-11-20T00:02:37;1.00;99.90
62339;DHT22;48368;53.406;6.214;2022-11-20T00:05:03;1.00;99.90
62339;DHT22;48368;53.406;6.214;2022-11-20T00:07:28;1.00;99.90
62339;DHT22;48368;53.406;6.214;2022-11-20T00:09:54;1.00;99.90
62339;DHT22;48368;53.406;6.214;2022-11-20T00:12:19;1.00;99.90
62339;DHT22;48368;53.406;6.214;2022-11-20T00:14:45;1.00;99.90
62339;DHT22;48368;53.406;6.214;2022-11-20T00:17:11;0.90;99.90
62339;DHT22;48368;53.406;6.214;2022-11-20T00:19:36;1.00;99.90
62339;DHT22;48368;53.406;6.214;2022-11-20T00:22:02;1.00;99.90
62339;DHT22;48368;53.406;6.214;2022-11-20T00:24:28;1.10;99.90
62339;DHT22;48368;53.406;6.214;2022-11-20T00:26:53;1.10;99.90
62339;DHT22;48368;53.406;6.214;2022-11-20T00:29:19;1.10;99.90
62339;DHT22;48368;53.406;6.214;2022-11-20T00:31:44;1.10;99.90
62339;DHT22;48368;53.406;6.214;2022-11-20T00:34:10;1.10;99.90
62339;DHT22;48368;53.406;6.214;2022-11-20T00:36:36;1.10;99.90
62339;DHT22;48368;53.406;6.214;2022-11-20T00:39:02;1.10;99.90
62339;DHT22;48368;53.406;6.214;2022-11-20T00:41:28;1.10;99.90
62339;DHT22;48368;53.406;6.214;2022-11-20T00:43:55;1.10;99.90
62339;DHT22;48368;53.406;6.214;2022-11-20T00:46:23;1.10;99.90
62339;DHT22;48368;53.406;6.214;2022-11-20T00:48:49;1.10;99.90
62339;DHT22;48368;53.406;6.214;2022-11-20T00:51:16;1.10;99.90
62339;DHT22;48368;53.406;6.214;2022-11-20T00:53:43;1.20;99.90
62339;DHT22;48368;53.406;6.214;2022-11-20T00:56:15;1.20;99.90
62339;DHT22;48368;53.406;6.214;2022-11-20T00:58:43;1.10;99.90
62339;DHT22;48368;53.406;6.214;2022-11-20T01:01:12;1.10;99.90
62339;DHT22;48368;53.406;6.214;2022-11-20T01:03:44;1.10;99.90
62339;DHT22;48368;53.406;6.214;2022-11-20T01:06:13;1.20;99.90
62339;DHT22;48368;53.406;6.214;2022-11-20T01:08:39;1.20;99.90
62339;DHT22;48368;53.406;6.214;2022-11-20T01:11:07;1.20;99.90
62339;DHT22;48368;53.406;6.214;2022-11-20T01:13:33;1.20;99.90
62339;DHT22;48368;53.406;6.214;2022-11-20T01:16:20;1.20;99.90
62339;DHT22;48368;53.406;6.214;2022-11-20T01:18:46;1.20;99.90
62339;DHT22;48368;53.406;6.214;2022-11-20T01:21:19;1.20;99.90
62339;DHT22;48368;53.406;6.214;2022-11-20T01:23:46;1.20;99.90
62339;DHT22;48368;53.406;6.214;2022-11-20T01:26:15;1.30;99.90
62339;DHT22;48368;53.406;6.214;2022-11-20T01:28:42;1.30;99.90
62339;DHT22;48368;53.406;6.214;2022-11-20T01:31:22;1.30;99.90
62339;DHT22;48368;53.406;6.214;2022-11-20T01:33:51;1.30;99.90
62339;DHT22;48368;53.406;6.214;2022-11-20T01:36:20;1.30;99.90
62339;DHT22;48368;53.406;6.214;2022-11-20T01:38:46;1.30;99.90
62339;DHT22;48368;53.406;6.214;2022-11-20T01:41:14;1.30;99.90
62339;DHT22;48368;53.406;6.214;2022-11-20T01:44:01;1.30;99.90
62339;DHT22;48368;53.406;6.214;2022-11-20T01:46:27;1.30;99.90
62339;DHT22;48368;53.406;6.214;2022-11-20T01:49:20;1.30;99.90
62339;DHT22;48368;53.406;6.214;2022-11-20T01:51:57;1.30;99.90
62339;DHT22;48368;53.406;6.214;2022-11-20T01:54:47;1.30;99.90
62339;DHT22;48368;53.406;6.214;2022-11-20T01:57:15;1.30;99.90
62339;DHT22;48368;53.406;6.214;2022-11-20T01:59:52;1.30;99.90
62339;DHT22;48368;53.406;6.214;2022-11-20T02:02:20;1.40;99.90
62339;DHT22;48368;53.406;6.214;2022-11-20T02:04:47;1.30;99.90
62339;DHT22;48368;53.406;6.214;2022-11-20T02:07:14;1.30;99.90
62339;DHT22;48368;53.406;6.214;2022-11-20T02:09:41;1.30;99.90
62339;DHT22;48368;53.406;6.214;2022-11-20T02:12:06;1.30;99.90
62339;DHT22;48368;53.406;6.214;2022-11-20T02:14:52;1.40;99.90
62339;DHT22;48368;53.406;6.214;2022-11-20T02:17:18;1.30;99.90
62339;DHT22;48368;53.406;6.214;2022-11-20T02:19:43;1.30;99.90
62339;DHT22;48368;53.406;6.214;2022-11-20T02:22:19;1.40;99.90
62339;DHT22;48368;53.406;6.214;2022-11-20T02:24:47;1.30;99.90
62339;DHT22;48368;53.406;6.214;2022-11-20T02:27:15;1.40;99.90
62339;DHT22;48368;53.406;6.214;2022-11-20T02:29:51;1.40;99.90
62339;DHT22;48368;53.406;6.214;2022-11-20T02:34:47;1.30;99.90
62339;DHT22;48368;53.406;6.214;2022-11-20T02:37:14;1.40;99.90
62339;DHT22;48368;53.406;6.214;2022-11-20T02:39:40;1.40;99.90
62339;DHT22;48368;53.406;6.214;2022-11-20T02:42:06;1.40;99.90
62339;DHT22;48368;53.406;6.214;2022-11-20T02:44:32;1.40;99.90
62339;DHT22;48368;53.406;6.214;2022-11-20T02:46:58;1.40;99.90
62339;DHT22;48368;53.406;6.214;2022-11-20T02:49:24;1.40;99.90
62339;DHT22;48368;53.406;6.214;2022-11-20T02:51:50;1.40;99.90
62339;DHT22;48368;53.406;6.214;2022-11-20T02:54:16;1.50;99.90
62339;DHT22;48368;53.406;6.214;2022-11-20T02:56:42;1.50;99.90
62339;DHT22;48368;53.406;6.214;2022-11-20T02:59:07;1.40;99.90
62339;DHT22;48368;53.406;6.214;2022-11-20T03:01:33;1.50;99.90
62339;DHT22;48368;53.406;6.214;2022-11-20T03:03:59;1.50;99.90
62339;DHT22;48368;53.406;6.214;2022-11-20T03:06:24;1.50;99.90
62339;DHT22;48368;53.406;6.214;2022-11-20T03:08:50;1.50;99.90
62339;DHT22;48368;53.406;6.214;2022-11-20T03:11:16;1.50;99.90
62339;DHT22;48368;53.406;6.214;2022-11-20T03:13:42;1.50;99.90
62339;DHT22;48368;53.406;6.214;2022-11-20T03:16:13;1.50;99.90
62339;DHT22;48368;53.406;6.214;2022-11-20T03:18:40;1.50;99.90
62339;DHT22;48368;53.406;6.214;2022-11-20T03:21:06;1.50;99.90
62339;DHT22;48368;53.406;6.214;2022-11-20T03:23:32;1.50;99.90
62339;DHT22;48368;53.406;6.214;2022-11-20T03:28:34;1.50;99.90
62339;DHT22;48368;53.406;6.214;2022-11-20T03:31:09;1.50;99.90
62339;DHT22;48368;53.406;6.214;2022-11-20T03:33:35;1.50;99.90
62339;DHT22;48368;53.406;6.214;2022-11-20T03:36:05;1.50;99.90
62339;DHT22;48368;53.406;6.214;2022-11-20T03:38:32;1.50;99.90
62339;DHT22;48368;53.406;6.214;2022-11-20T03:41:02;1.50;99.90
62339;DHT22;48368;53.406;6.214;2022-11-20T03:43:28;1.50;99.90
62339;DHT22;48368;53.406;6.214;2022-11-20T03:45:54;1.60;99.90
62339;DHT22;48368;53.406;6.214;2022-11-20T03:48:20;1.50;99.90
62339;DHT22;48368;53.406;6.214;2022-11-20T03:50:45;1.60;99.90
62339;DHT22;48368;53.406;6.214;2022-11-20T03:53:13;1.50;99.90
62339;DHT22;48368;53.406;6.214;2022-11-20T03:55:39;1.50;99.90
62339;DHT22;48368;53.406;6.214;2022-11-20T03:58:05;1.50;99.90
62339;DHT22;48368;53.406;6.214;2022-11-20T04:00:30;1.50;99.90
62339;DHT22;48368;53.406;6.214;2022-11-20T04:03:03;1.50;99.90
62339;DHT22;48368;53.406;6.214;2022-11-20T04:05:29;1.50;99.90
62339;DHT22;48368;53.406;6.214;2022-11-20T04:07:54;1.50;99.90
62339;DHT22;48368;53.406;6.214;2022-11-20T04:10:20;1.50;99.90
62339;DHT22;48368;53.406;6.214;2022-11-20T04:12:46;1.50;99.90
62339;DHT22;48368;53.406;6.214;2022-11-20T04:15:11;1.50;99.90
62339;DHT22;48368;53.406;6.214;2022-11-20T04:17:37;1.50;99.90
62339;DHT22;48368;53.406;6.214;2022-11-20T04:20:03;1.50;99.90
62339;DHT22;48368;53.406;6.214;2022-11-20T04:22:29;1.50;99.90
62339;DHT22;48368;53.406;6.214;2022-11-20T04:24:55;1.50;99.90
62339;DHT22;48368;53.406;6.214;2022-11-20T04:27:20;1.50;99.90
62339;DHT22;48368;53.406;6.214;2022-11-20T04:29:46;1.50;99.90
62339;DHT22;48368;53.406;6.214;2022-11-20T04:32:12;1.50;99.90
62339;DHT22;48368;53.406;6.214;2022-11-20T04:34:37;1.60;99.90
62339;DHT22;48368;53.406;6.214;2022-11-20T04:37:03;1.50;99.90
62339;DHT22;48368;53.406;6.214;2022-11-20T04:39:28;1.50;99.90
62339;DHT22;48368;53.406;6.214;2022-11-20T04:41:54;1.50;99.90
62339;DHT22;48368;53.406;6.214;2022-11-20T04:44:38;1.60;99.90
62339;DHT22;48368;53.406;6.214;2022-11-20T04:47:04;1.60;99.90
62339;DHT22;48368;53.406;6.214;2022-11-20T04:49:30;1.60;99.90
62339;DHT22;48368;53.406;6.214;2022-11-20T04:51:57;1.60;99.90
62339;DHT22;48368;53.406;6.214;2022-11-20T04:54:23;1.70;99.90
62339;DHT22;48368;53.406;6.214;2022-11-20T04:56:49;1.70;99.90
62339;DHT22;48368;53.406;6.214;2022-11-20T04:59:15;1.60;99.90
62339;DHT22;48368;53.406;6.214;2022-11-20T05:01:40;1.60;99.90
62339;DHT22;48368;53.406;6.214;2022-11-20T05:04:06;1.60;99.90
62339;DHT22;48368;53.406;6.214;2022-11-20T05:06:32;1.70;99.90
62339;DHT22;48368;53.406;6.214;2022-11-20T05:08:58;1.70;99.90
62339;DHT22;48368;53.406;6.214;2022-11-20T05:11:23;1.70;99.90
62339;DHT22;48368;53.406;6.214;2022-11-20T05:13:50;1.70;99.90
62339;DHT22;48368;53.406;6.214;2022-11-20T05:16:22;1.70;99.90
62339;DHT22;48368;53.406;6.214;2022-11-20T05:18:49;1.70;99.90
62339;DHT22;48368;53.406;6.214;2022-11-20T05:21:15;1.70;99.90
62339;DHT22;48368;53.406;6.214;2022-11-20T05:23:42;1.80;99.90
62339;DHT22;48368;53.406;6.214;2022-11-20T05:26:16;1.80;99.90
62339;DHT22;48368;53.406;6.214;2022-11-20T05:28:42;1.80;99.90
62339;DHT22;48368;53.406;6.214;2022-11-20T05:31:10;1.80;99.90
62339;DHT22;48368;53.406;6.214;2022-11-20T05:33:39;1.80;99.90
62339;DHT22;48368;53.406;6.214;2022-11-20T05:36:05;1.70;99.90
62339;DHT22;48368;53.406;6.214;2022-11-20T05:38:31;1.80;99.90
62339;DHT22;48368;53.406;6.214;2022-11-20T05:41:20;1.80;99.90
62339;DHT22;48368;53.406;6.214;2022-11-20T05:43:47;1.80;99.90
62339;DHT22;48368;53.406;6.214;2022-11-20T05:46:14;1.80;99.90
62339;DHT22;48368;53.406;6.214;2022-11-20T05:48:42;1.70;99.90
62339;DHT22;48368;53.406;6.214;2022-11-20T05:51:09;1.80;99.90
62339;DHT22;48368;53.406;6.214;2022-11-20T05:53:36;1.70;99.90
62339;DHT22;48368;53.406;6.214;2022-11-20T05:56:04;1.80;99.90
62339;DHT22;48368;53.406;6.214;2022-11-20T05:58:31;1.80;99.90
62339;DHT22;48368;53.406;6.214;2022-11-20T06:01:06;1.80;99.90
62339;DHT22;48368;53.406;6.214;2022-11-20T06:03:33;1.80;99.90
62339;DHT22;48368;53.406;6.214;2022-11-20T06:05:59;1.80;99.90
62339;DHT22;48368;53.406;6.214;2022-11-20T06:08:25;1.80;99.90
62339;DHT22;48368;53.406;6.214;2022-11-20T06:10:51;1.80;99.90
62339;DHT22;48368;53.406;6.214;2022-11-20T06:13:17;1.80;99.90
62339;DHT22;48368;53.406;6.214;2022-11-20T06:15:48;1.90;99.90
62339;DHT22;48368;53.406;6.214;2022-11-20T06:18:14;1.80;99.90
62339;DHT22;48368;53.406;6.214;2022-11-20T06:20:41;1.90;99.90
62339;DHT22;48368;53.406;6.214;2022-11-20T06:23:06;1.90;99.90
62339;DHT22;48368;53.406;6.214;2022-11-20T06:25:32;1.90;99.90
62339;DHT22;48368;53.406;6.214;2022-11-20T06:27:58;1.90;99.90
62339;DHT22;48368;53.406;6.214;2022-11-20T06:30:23;1.90;99.90
62339;DHT22;48368;53.406;6.214;2022-11-20T06:32:49;1.90;99.90
62339;DHT22;48368;53.406;6.214;2022-11-20T06:35:14;1.90;99.90
62339;DHT22;48368;53.406;6.214;2022-11-20T06:37:40;2.00;99.90
62339;DHT22;48368;53.406;6.214;2022-11-20T06:40:06;1.90;99.90
62339;DHT22;48368;53.406;6.214;2022-11-20T06:42:32;2.00;99.90
62339;DHT22;48368;53.406;6.214;2022-11-20T06:44:58;1.90;99.90
62339;DHT22;48368;53.406;6.214;2022-11-20T06:47:23;2.00;99.90
62339;DHT22;48368;53.406;6.214;2022-11-20T06:49:49;2.00;99.90
62339;DHT22;48368;53.406;6.214;2022-11-20T06:52:14;2.00;99.90
62339;DHT22;48368;53.406;6.214;2022-11-20T06:54:40;2.00;99.90
62339;DHT22;48368;53.406;6.214;2022-11-20T06:57:06;2.00;99.90
62339;DHT22;48368;53.406;6.214;2022-11-20T06:59:31;2.10;99.90
62339;DHT22;48368;53.406;6.214;2022-11-20T07:01:57;2.00;99.90
62339;DHT22;48368;53.406;6.214;2022-11-20T07:04:23;2.00;99.90
62339;DHT22;48368;53.406;6.214;2022-11-20T07:06:49;2.00;99.90
62339;DHT22;48368;53.406;6.214;2022-11-20T07:09:14;2.00;99.90
62339;DHT22;48368;53.406;6.214;2022-11-20T07:11:40;2.10;99.90
62339;DHT22;48368;53.406;6.214;2022-11-20T07:14:06;2.10;99.90
62339;DHT22;48368;53.406;6.214;2022-11-20T07:16:31;2.00;99.90
62339;DHT22;48368;53.406;6.214;2022-11-20T07:18:57;2.00;99.90
62339;DHT22;48368;53.406;6.214;2022-11-20T07:21:23;2.10;99.90
62339;DHT22;48368;53.406;6.214;2022-11-20T07:23:48;2.10;99.90
62339;DHT22;48368;53.406;6.214;2022-11-20T07:26:14;2.00;99.90
62339;DHT22;48368;53.406;6.214;2022-11-20T07:28:40;2.10;99.90
62339;DHT22;48368;53.406;6.214;2022-11-20T07:31:06;2.10;99.90
62339;DHT22;48368;53.406;6.214;2022-11-20T07:33:34;2.10;99.90
62339;DHT22;48368;53.406;6.214;2022-11-20T07:36:00;2.10;99.90
62339;DHT22;48368;53.406;6.214;2022-11-20T07:38:26;2.10;99.90
62339;DHT22;48368;53.406;6.214;2022-11-20T07:40:56;2.10;99.90
62339;DHT22;48368;53.406;6.214;2022-11-20T07:43:23;2.10;99.90
62339;DHT22;48368;53.406;6.214;2022-11-20T07:45:49;2.10;99.90
62339;DHT22;48368;53.406;6.214;2022-11-20T07:48:15;2.10;99.90
62339;DHT22;48368;53.406;6.214;2022-11-20T07:50:40;2.10;99.90
62339;DHT22;48368;53.406;6.214;2022-11-20T07:53:06;2.10;99.90
62339;DHT22;48368;53.406;6.214;2022-11-20T07:55:32;2.10;99.90
62339;DHT22;48368;53.406;6.214;2022-11-20T07:57:58;2.10;99.90
62339;DHT22;48368;53.406;6.214;2022-11-20T08:00:25;2.10;99.90
62339;DHT22;48368;53.406;6.214;2022-11-20T08:02:54;2.10;99.90
62339;DHT22;48368;53.406;6.214;2022-11-20T08:05:20;2.10;99.90
62339;DHT22;48368;53.406;6.214;2022-11-20T08:07:45;2.10;99.90
62339;DHT22;48368;53.406;6.214;2022-11-20T08:10:13;2.10;99.90
62339;DHT22;48368;53.406;6.214;2022-11-20T08:12:50;2.10;99.90
62339;DHT22;48368;53.406;6.214;2022-11-20T08:15:35;2.20;99.90
62339;DHT22;48368;53.406;6.214;2022-11-20T08:18:03;2.10;99.90
62339;DHT22;48368;53.406;6.214;2022-11-20T08:20:28;2.30;99.90
62339;DHT22;48368;53.406;6.214;2022-11-20T08:23:00;2.20;99.90
62339;DHT22;48368;53.406;6.214;2022-11-20T08:25:28;2.20;99.90
62339;DHT22;48368;53.406;6.214;2022-11-20T08:27:54;2.20;99.90
62339;DHT22;48368;53.406;6.214;2022-11-20T08:30:21;2.20;99.90
62339;DHT22;48368;53.406;6.214;2022-11-20T08:32:47;2.20;99.90
62339;DHT22;48368;53.406;6.214;2022-11-20T08:35:13;2.20;99.90
62339;DHT22;48368;53.406;6.214;2022-11-20T08:37:38;2.30;99.90
62339;DHT22;48368;53.406;6.214;2022-11-20T08:40:09;2.30;99.90
62339;DHT22;48368;53.406;6.214;2022-11-20T08:42:35;2.30;99.90
62339;DHT22;48368;53.406;6.214;2022-11-20T08:45:01;2.30;99.90
62339;DHT22;48368;53.406;6.214;2022-11-20T08:47:27;2.40;99.90
62339;DHT22;48368;53.406;6.214;2022-11-20T08:49:52;2.40;99.90
62339;DHT22;48368;53.406;6.214;2022-11-20T08:52:18;2.50;99.90
62339;DHT22;48368;53.406;6.214;2022-11-20T08:54:43;2.50;99.90
62339;DHT22;48368;53.406;6.214;2022-11-20T08:57:09;2.50;99.90
62339;DHT22;48368;53.406;6.214;2022-11-20T08:59:35;2.50;99.90
62339;DHT22;48368;53.406;6.214;2022-11-20T09:02:00;2.50;99.90
62339;DHT22;48368;53.406;6.214;2022-11-20T09:04:26;2.50;99.90
62339;DHT22;48368;53.406;6.214;2022-11-20T09:06:52;2.50;99.90
62339;DHT22;48368;53.406;6.214;2022-11-20T09:09:18;2.50;99.90
62339;DHT22;48368;53.406;6.214;2022-11-20T09:11:44;2.60;99.90
62339;DHT22;48368;53.406;6.214;2022-11-20T09:14:10;2.60;99.90
62339;DHT22;48368;53.406;6.214;2022-11-20T09:16:36;2.70;99.90
62339;DHT22;48368;53.406;6.214;2022-11-20T09:19:01;2.70;99.90
62339;DHT22;48368;53.406;6.214;2022-11-20T09:21:27;2.70;99.90
62339;DHT22;48368;53.406;6.214;2022-11-20T09:23:53;2.70;99.90
62339;DHT22;48368;53.406;6.214;2022-11-20T09:26:18;2.70;99.90
62339;DHT22;48368;53.406;6.214;2022-11-20T09:28:44;2.80;99.90
62339;DHT22;48368;53.406;6.214;2022-11-20T09:31:23;2.70;99.90
62339;DHT22;48368;53.406;6.214;2022-11-20T09:33:50;2.80;99.90
62339;DHT22;48368;53.406;6.214;2022-11-20T09:36:15;2.80;99.90
62339;DHT22;48368;53.406;6.214;2022-11-20T09:38:46;2.80;99.90
62339;DHT22;48368;53.406;6.214;2022-11-20T09:55:35;3.20;99.90
62339;DHT22;48368;53.406;6.214;2022-11-20T09:58:01;3.20;99.90
62339;DHT22;48368;53.406;6.214;2022-11-20T10:00:30;3.30;99.90
62339;DHT22;48368;53.406;6.214;2022-11-20T10:03:13;3.40;99.90
62339;DHT22;48368;53.406;6.214;2022-11-20T10:05:45;3.40;99.90
62339;DHT22;48368;53.406;6.214;2022-11-20T10:08:24;3.40;99.90
62339;DHT22;48368;53.406;6.214;2022-11-20T10:10:54;3.50;99.90
62339;DHT22;48368;53.406;6.214;2022-11-20T10:13:32;3.60;99.90
62339;DHT22;48368;53.406;6.214;2022-11-20T10:22:35;3.60;99.90
62339;DHT22;48368;53.406;6.214;2022-11-20T10:25:13;3.80;99.90
62339;DHT22;48368;53.406;6.214;2022-11-20T10:30:24;3.90;99.90
62339;DHT22;48368;53.406;6.214;2022-11-20T10:33:08;3.90;99.90
62339;DHT22;48368;53.406;6.214;2022-11-20T10:38:30;3.90;99.90
62339;DHT22;48368;53.406;6.214;2022-11-20T10:41:02;3.90;99.90
62339;DHT22;48368;53.406;6.214;2022-11-20T10:43:48;4.00;99.90
62339;DHT22;48368;53.406;6.214;2022-11-20T10:46:19;3.80;99.90
62339;DHT22;48368;53.406;6.214;2022-11-20T10:48:48;3.80;99.90
62339;DHT22;48368;53.406;6.214;2022-11-20T10:56:42;3.70;99.90
62339;DHT22;48368;53.406;6.214;2022-11-20T11:01:53;3.60;99.90
62339;DHT22;48368;53.406;6.214;2022-11-20T11:04:42;3.50;99.90
62339;DHT22;48368;53.406;6.214;2022-11-20T11:07:18;3.60;99.90
62339;DHT22;48368;53.406;6.214;2022-11-20T11:09:52;3.50;99.90
62339;DHT22;48368;53.406;6.214;2022-11-20T11:12:19;3.40;99.90
62339;DHT22;48368;53.406;6.214;2022-11-20T11:14:50;3.40;99.90
62339;DHT22;48368;53.406;6.214;2022-11-20T11:17:33;3.30;99.90
62339;DHT22;48368;53.406;6.214;2022-11-20T11:20:17;3.30;99.90
62339;DHT22;48368;53.406;6.214;2022-11-20T11:22:49;3.30;99.90
62339;DHT22;48368;53.406;6.214;2022-11-20T11:25:40;3.20;99.90
62339;DHT22;48368;53.406;6.214;2022-11-20T11:28:20;3.20;99.90
62339;DHT22;48368;53.406;6.214;2022-11-20T11:30:46;3.20;99.90
62339;DHT22;48368;53.406;6.214;2022-11-20T11:33:28;3.10;99.90
62339;DHT22;48368;53.406;6.214;2022-11-20T11:35:57;3.10;99.90
62339;DHT22;48368;53.406;6.214;2022-11-20T11:38:38;3.10;99.90
62339;DHT22;48368;53.406;6.214;2022-11-20T11:41:06;3.10;99.90
62339;DHT22;48368;53.406;6.214;2022-11-20T11:43:35;3.10;99.90
62339;DHT22;48368;53.406;6.214;2022-11-20T11:54:41;3.10;99.90
62339;DHT22;48368;53.406;6.214;2022-11-20T11:57:22;3.10;99.90
62339;DHT22;48368;53.406;6.214;2022-11-20T12:05:28;3.10;99.90
62339;DHT22;48368;53.406;6.214;2022-11-20T12:08:02;3.20;99.90
62339;DHT22;48368;53.406;6.214;2022-11-20T12:15:45;3.50;99.90
62339;DHT22;48368;53.406;6.214;2022-11-20T12:18:18;3.50;99.90
62339;DHT22;48368;53.406;6.214;2022-11-20T12:21:00;3.50;99.90
62339;DHT22;48368;53.406;6.214;2022-11-20T12:39:50;3.60;99.90
62339;DHT22;48368;53.406;6.214;2022-11-20T12:42:29;3.60;99.90
62339;DHT22;48368;53.406;6.214;2022-11-20T12:46:06;3.60;99.90
62339;DHT22;48368;53.406;6.214;2022-11-20T12:57:07;3.60;99.90
62339;DHT22;48368;53.406;6.214;2022-11-20T13:07:40;3.80;99.90
62339;DHT22;48368;53.406;6.214;2022-11-20T13:10:16;3.70;99.90
62339;DHT22;48368;53.406;6.214;2022-11-20T13:12:47;3.70;99.90
62339;DHT22;48368;53.406;6.214;2022-11-20T13:18:05;3.70;99.90
62339;DHT22;48368;53.406;6.214;2022-11-20T13:20:34;3.80;99.90
62339;DHT22;48368;53.406;6.214;2022-11-20T13:23:01;3.80;99.90
62339;DHT22;48368;53.406;6.214;2022-11-20T13:25:31;3.80;99.90
62339;DHT22;48368;53.406;6.214;2022-11-20T13:28:43;3.80;99.90
62339;DHT22;48368;53.406;6.214;2022-11-20T13:30:52;3.80;99.90
62339;DHT22;48368;53.406;6.214;2022-11-20T13:33:29;3.70;99.90
62339;DHT22;48368;53.406;6.214;2022-11-20T13:35:59;3.70;99.90
62339;DHT22;48368;53.406;6.214;2022-11-20T13:38:26;3.70;99.90
62339;DHT22;48368;53.406;6.214;2022-11-20T13:40:57;3.70;99.90
62339;DHT22;48368;53.406;6.214;2022-11-20T13:43:33;3.70;99.90
62339;DHT22;48368;53.406;6.214;2022-11-20T13:46:05;3.70;99.90
62339;DHT22;48368;53.406;6.214;2022-11-20T13:48:33;3.70;99.90
62339;DHT22;48368;53.406;6.214;2022-11-20T14:01:28;3.60;99.90
62339;DHT22;48368;53.406;6.214;2022-11-20T14:03:56;3.60;99.90
62339;DHT22;48368;53.406;6.214;2022-11-20T14:06:35;3.60;99.90
62339;DHT22;48368;53.406;6.214;2022-11-20T14:09:04;3.60;99.90
62339;DHT22;48368;53.406;6.214;2022-11-20T14:11:30;3.60;99.90
62339;DHT22;48368;53.406;6.214;2022-11-20T14:16:28;3.50;99.90
62339;DHT22;48368;53.406;6.214;2022-11-20T14:18:55;3.50;99.90
62339;DHT22;48368;53.406;6.214;2022-11-20T14:21:26;3.50;99.90
62339;DHT22;48368;53.406;6.214;2022-11-20T14:23:54;3.50;99.90
62339;DHT22;48368;53.406;6.214;2022-11-20T14:26:20;3.50;99.90
62339;DHT22;48368;53.406;6.214;2022-11-20T14:28:49;3.50;99.90
62339;DHT22;48368;53.406;6.214;2022-11-20T14:31:23;3.40;99.90
62339;DHT22;48368;53.406;6.214;2022-11-20T14:33:52;3.40;99.90
62339;DHT22;48368;53.406;6.214;2022-11-20T14:36:20;3.40;99.90
62339;DHT22;48368;53.406;6.214;2022-11-20T14:38:46;3.40;99.90
62339;DHT22;48368;53.406;6.214;2022-11-20T14:41:21;3.40;99.90
62339;DHT22;48368;53.406;6.214;2022-11-20T14:43:54;3.30;99.90
62339;DHT22;48368;53.406;6.214;2022-11-20T14:46:21;3.30;99.90
62339;DHT22;48368;53.406;6.214;2022-11-20T14:48:50;3.20;99.90
62339;DHT22;48368;53.406;6.214;2022-11-20T14:51:32;3.20;99.90
62339;DHT22;48368;53.406;6.214;2022-11-20T14:54:18;3.20;99.90
62339;DHT22;48368;53.406;6.214;2022-11-20T14:57:02;3.20;99.90
62339;DHT22;48368;53.406;6.214;2022-11-20T14:59:30;3.10;99.90
62339;DHT22;48368;53.406;6.214;2022-11-20T15:02:05;3.10;99.90
62339;DHT22;48368;53.406;6.214;2022-11-20T15:04:31;3.20;99.90
62339;DHT22;48368;53.406;6.214;2022-11-20T15:06:59;3.10;99.90
62339;DHT22;48368;53.406;6.214;2022-11-20T15:09:25;3.10;99.90
62339;DHT22;48368;53.406;6.214;2022-11-20T15:11:59;3.10;99.90
62339;DHT22;48368;53.406;6.214;2022-11-20T15:14:27;3.10;99.90
62339;DHT22;48368;53.406;6.214;2022-11-20T15:16:54;3.00;99.90
62339;DHT22;48368;53.406;6.214;2022-11-20T15:19:25;3.00;99.90
62339;DHT22;48368;53.406;6.214;2022-11-20T15:21:51;3.00;99.90
62339;DHT22;48368;53.406;6.214;2022-11-20T15:24:17;3.00;99.90
62339;DHT22;48368;53.406;6.214;2022-11-20T15:26:43;2.90;99.90
62339;DHT22;48368;53.406;6.214;2022-11-20T15:29:14;2.90;99.90
62339;DHT22;48368;53.406;6.214;2022-11-20T15:31:40;2.90;99.90
62339;DHT22;48368;53.406;6.214;2022-11-20T15:34:12;2.90;99.90
62339;DHT22;48368;53.406;6.214;2022-11-20T15:36:39;2.80;99.90
62339;DHT22;48368;53.406;6.214;2022-11-20T15:39:06;2.80;99.90
62339;DHT22;48368;53.406;6.214;2022-11-20T15:41:35;2.80;99.90
62339;DHT22;48368;53.406;6.214;2022-11-20T15:44:02;2.70;99.90
62339;DHT22;48368;53.406;6.214;2022-11-20T15:46:30;2.80;99.90
62339;DHT22;48368;53.406;6.214;2022-11-20T15:49:00;2.80;99.90
62339;DHT22;48368;53.406;6.214;2022-11-20T15:51:31;2.80;99.90
62339;DHT22;48368;53.406;6.214;2022-11-20T15:53:58;2.80;99.90
62339;DHT22;48368;53.406;6.214;2022-11-20T15:56:25;2.80;99.90
62339;DHT22;48368;53.406;6.214;2022-11-20T15:58:50;2.70;99.90
62339;DHT22;48368;53.406;6.214;2022-11-20T16:01:18;2.70;99.90
62339;DHT22;48368;53.406;6.214;2022-11-20T16:03:44;2.70;99.90
62339;DHT22;48368;53.406;6.214;2022-11-20T16:06:10;2.70;99.90
62339;DHT22;48368;53.406;6.214;2022-11-20T16:08:36;2.70;99.90
62339;DHT22;48368;53.406;6.214;2022-11-20T16:11:02;2.60;99.90
62339;DHT22;48368;53.406;6.214;2022-11-20T16:13:28;2.60;99.90
62339;DHT22;48368;53.406;6.214;2022-11-20T16:16:23;2.60;99.90
62339;DHT22;48368;53.406;6.214;2022-11-20T16:18:49;2.60;99.90
62339;DHT22;48368;53.406;6.214;2022-11-20T16:21:16;2.60;99.90
62339;DHT22;48368;53.406;6.214;2022-11-20T16:23:41;2.50;99.90
62339;DHT22;48368;53.406;6.214;2022-11-20T16:26:15;2.50;99.90
62339;DHT22;48368;53.406;6.214;2022-11-20T16:28:43;2.50;99.90
62339;DHT22;48368;53.406;6.214;2022-11-20T16:31:14;2.50;99.90
62339;DHT22;48368;53.406;6.214;2022-11-20T16:33:40;2.50;99.90
62339;DHT22;48368;53.406;6.214;2022-11-20T16:36:10;2.50;99.90
62339;DHT22;48368;53.406;6.214;2022-11-20T16:38:37;2.50;99.90
62339;DHT22;48368;53.406;6.214;2022-11-20T16:41:03;2.40;99.90
62339;DHT22;48368;53.406;6.214;2022-11-20T16:43:29;2.40;99.90
62339;DHT22;48368;53.406;6.214;2022-11-20T16:45:55;2.40;99.90
62339;DHT22;48368;53.406;6.214;2022-11-20T16:48:20;2.40;99.90
62339;DHT22;48368;53.406;6.214;2022-11-20T16:50:51;2.40;99.90
62339;DHT22;48368;53.406;6.214;2022-11-20T16:53:18;2.40;99.90
62339;DHT22;48368;53.406;6.214;2022-11-20T16:55:44;2.40;99.90
62339;DHT22;48368;53.406;6.214;2022-11-20T16:58:10;2.40;99.90
62339;DHT22;48368;53.406;6.214;2022-11-20T17:00:37;2.40;99.90
62339;DHT22;48368;53.406;6.214;2022-11-20T17:03:04;2.40;99.90
62339;DHT22;48368;53.406;6.214;2022-11-20T17:05:30;2.30;99.90
62339;DHT22;48368;53.406;6.214;2022-11-20T17:07:56;2.40;99.90
62339;DHT22;48368;53.406;6.214;2022-11-20T17:10:22;2.30;99.90
62339;DHT22;48368;53.406;6.214;2022-11-20T17:12:47;2.40;99.90
62339;DHT22;48368;53.406;6.214;2022-11-20T17:15:13;2.30;99.90
62339;DHT22;48368;53.406;6.214;2022-11-20T17:17:39;2.30;99.90
62339;DHT22;48368;53.406;6.214;2022-11-20T17:20:05;2.30;99.90
62339;DHT22;48368;53.406;6.214;2022-11-20T17:22:31;2.30;99.90
62339;DHT22;48368;53.406;6.214;2022-11-20T17:24:57;2.30;99.90
62339;DHT22;48368;53.406;6.214;2022-11-20T17:27:22;2.30;99.90
62339;DHT22;48368;53.406;6.214;2022-11-20T17:29:48;2.30;99.90
62339;DHT22;48368;53.406;6.214;2022-11-20T17:32:14;2.30;99.90
62339;DHT22;48368;53.406;6.214;2022-11-20T17:34:40;2.30;99.90
62339;DHT22;48368;53.406;6.214;2022-11-20T17:37:05;2.20;99.90
62339;DHT22;48368;53.406;6.214;2022-11-20T17:39:31;2.20;99.90
62339;DHT22;48368;53.406;6.214;2022-11-20T17:41:57;2.20;99.90